Time;durP1;ratioP1;P1;durP2;ratioP2;P2;SDS_P1;SDS_P2;PMS_P1;PMS_P2;Temp;Humidity;BMP_temperature;BMP_pressure;BME280_temperature;BME280_humidity;BME280_pressure;Samples;Min_cycle;Max_cycle;Signal;HPM_P1;HPM_P2
2024/01/07 00:01:49;;;;;;;0.95;0.88;;;9.80;78.80;;;;;;5094799;28;20082;-68
2024/01/07 00:04:18;;;;;;;1.10;1.00;;;9.80;78.80;;;;;;5094696;28;20028;-71
2024/01/07 00:06:47;;;;;;;1.15;1.05;;;9.90;78.90;;;;;;5095328;28;20077;-71
2024/01/07 00:09:13;;;;;;;1.63;1.15;;;9.80;78.90;;;;;;5094732;28;20115;-68
2024/01/07 00:11:40;;;;;;;0.80;0.80;;;9.80;78.90;;;;;;5096288;28;20107;-69
2024/01/07 00:14:06;;;;;;;1.67;1.15;;;9.80;78.50;;;;;;5080427;28;20367;-68
2024/01/07 00:16:32;;;;;;;1.75;1.10;;;9.80;78.60;;;;;;5098266;28;20040;-70
2024/01/07 00:18:58;;;;;;;3.60;1.20;;;9.80;78.40;;;;;;5098498;28;20028;-70
2024/01/07 00:21:24;;;;;;;1.77;1.00;;;9.80;78.50;;;;;;5098344;28;20337;-72
2024/01/07 00:23:50;;;;;;;1.20;0.90;;;9.80;78.30;;;;;;5098227;28;20023;-70
2024/01/07 00:26:16;;;;;;;1.50;0.85;;;9.80;78.10;;;;;;5098154;28;20099;-67
2024/01/07 00:28:42;;;;;;;1.33;1.15;;;9.80;77.90;;;;;;5098419;28;20447;-71
2024/01/07 00:31:11;;;;;;;1.60;1.10;;;9.80;77.90;;;;;;5098615;28;20349;-68
2024/01/07 00:33:37;;;;;;;2.17;1.15;;;9.70;78.00;;;;;;5098115;28;20123;-69
2024/01/07 00:36:03;;;;;;;3.20;1.13;;;9.70;78.10;;;;;;5097847;28;20364;-70
2024/01/07 00:38:29;;;;;;;2.55;1.25;;;9.70;78.10;;;;;;5098251;28;20099;-69
2024/01/07 00:40:55;;;;;;;1.85;1.20;;;9.70;78.10;;;;;;5098093;28;20118;-71
2024/01/07 00:43:21;;;;;;;1.30;1.20;;;9.70;77.90;;;;;;5098115;28;20039;-71
2024/01/07 00:45:47;;;;;;;1.30;1.05;;;9.60;78.10;;;;;;5079987;28;20425;-72
2024/01/07 00:48:14;;;;;;;1.90;1.10;;;9.60;78.20;;;;;;5098043;28;20024;-68
2024/01/07 00:50:40;;;;;;;1.02;0.90;;;9.60;78.20;;;;;;5079860;28;20024;-70
2024/01/07 00:53:06;;;;;;;0.70;0.70;;;9.60;78.30;;;;;;5097652;28;20035;-71
2024/01/07 00:55:32;;;;;;;1.67;0.80;;;9.60;78.30;;;;;;5097781;28;20395;-69
2024/01/07 00:57:58;;;;;;;1.42;1.02;;;9.50;78.30;;;;;;5098125;28;20050;-69
2024/01/07 01:00:24;;;;;;;1.00;0.80;;;9.50;78.30;;;;;;5098007;28;20107;-68
2024/01/07 01:02:50;;;;;;;1.98;0.95;;;9.50;78.40;;;;;;5097449;28;20055;-70
2024/01/07 01:05:16;;;;;;;2.08;1.13;;;9.50;78.50;;;;;;5097399;28;20098;-68
2024/01/07 01:07:42;;;;;;;2.38;1.08;;;9.60;78.60;;;;;;5097697;28;20024;-71
2024/01/07 01:10:09;;;;;;;1.67;1.13;;;9.50;78.70;;;;;;5097346;28;20043;-71
2024/01/07 01:12:34;;;;;;;1.83;0.98;;;9.50;78.80;;;;;;5097300;28;20028;-68
2024/01/07 01:15:01;;;;;;;1.02;0.90;;;9.50;78.70;;;;;;5097146;28;20052;-68
2024/01/07 01:17:26;;;;;;;2.30;1.17;;;9.50;78.70;;;;;;5079592;28;20100;-71
2024/01/07 01:19:52;;;;;;;1.50;1.10;;;9.40;78.80;;;;;;5097613;28;20415;-68
2024/01/07 01:22:19;;;;;;;1.50;1.20;;;9.40;78.90;;;;;;5096745;28;20095;-69
2024/01/07 01:24:45;;;;;;;3.72;1.50;;;9.40;79.10;;;;;;5096991;28;20073;-71
2024/01/07 01:27:15;;;;;;;1.75;1.10;;;9.40;79.20;;;;;;5097248;28;20024;-68
2024/01/07 01:29:41;;;;;;;1.45;1.15;;;9.40;79.20;;;;;;5097241;28;20095;-71
2024/01/07 01:32:07;;;;;;;2.67;1.65;;;9.40;79.30;;;;;;5079355;28;20024;-70
2024/01/07 01:34:33;;;;;;;2.38;1.70;;;9.40;79.50;;;;;;5097071;28;20031;-71
2024/01/07 01:36:59;;;;;;;3.63;1.73;;;9.40;79.70;;;;;;5097083;28;20099;-71
2024/01/07 01:39:25;;;;;;;1.58;1.25;;;9.40;79.60;;;;;;5096969;28;20157;-70
2024/01/07 01:41:51;;;;;;;2.75;1.33;;;9.40;79.60;;;;;;5097012;28;20521;-71
2024/01/07 01:44:17;;;;;;;1.52;1.23;;;9.40;79.70;;;;;;5096588;28;20032;-69
2024/01/07 01:46:45;;;;;;;2.53;1.98;;;9.40;79.50;;;;;;5096569;28;20026;-68
2024/01/07 01:49:12;;;;;;;8.23;5.00;;;9.40;79.70;;;;;;5096599;28;20028;-71
2024/01/07 01:51:38;;;;;;;7.43;5.03;;;9.40;79.70;;;;;;5096870;28;20098;-68
2024/01/07 01:54:04;;;;;;;5.85;4.05;;;9.40;79.80;;;;;;5096682;28;20020;-69
2024/01/07 01:56:32;;;;;;;5.25;3.70;;;9.30;79.70;;;;;;5096711;28;20025;-72
2024/01/07 01:58:59;;;;;;;4.05;2.78;;;9.30;79.80;;;;;;5096876;28;20429;-69
2024/01/07 02:01:25;;;;;;;4.32;3.20;;;9.40;79.80;;;;;;5096176;28;20028;-70
2024/01/07 02:03:53;;;;;;;10.25;7.10;;;9.40;79.90;;;;;;5096555;28;20160;-70
2024/01/07 02:06:21;;;;;;;11.55;8.55;;;9.40;79.80;;;;;;5096122;28;20095;-68
2024/01/07 02:08:48;;;;;;;10.55;7.35;;;9.40;79.70;;;;;;5096494;28;20029;-68
2024/01/07 02:11:21;;;;;;;7.82;4.82;;;9.40;79.80;;;;;;5096703;28;20118;-71
2024/01/07 02:13:48;;;;;;;3.58;2.78;;;9.40;79.70;;;;;;5078660;28;20032;-71
2024/01/07 02:16:14;;;;;;;2.95;1.98;;;9.40;79.70;;;;;;5095838;28;20068;-69
2024/01/07 02:18:45;;;;;;;3.47;2.72;;;9.40;79.70;;;;;;5096054;28;20028;-70
2024/01/07 02:21:13;;;;;;;11.05;7.55;;;9.40;79.70;;;;;;5096220;28;20103;-69
2024/01/07 02:23:39;;;;;;;10.55;6.70;;;9.40;79.60;;;;;;5096446;28;20032;-70
2024/01/07 02:26:05;;;;;;;10.63;6.65;;;9.40;79.70;;;;;;5095825;28;20024;-70
2024/01/07 02:28:32;;;;;;;9.50;5.90;;;9.40;79.70;;;;;;5096128;28;20020;-68
2024/01/07 02:30:58;;;;;;;6.35;3.97;;;9.40;79.60;;;;;;5095862;28;20177;-70
2024/01/07 02:33:24;;;;;;;3.75;2.80;;;9.40;79.60;;;;;;5095881;28;20024;-69
2024/01/07 02:35:50;;;;;;;6.40;3.20;;;9.40;79.70;;;;;;5077610;28;20031;-70
2024/01/07 02:38:16;;;;;;;7.00;4.10;;;9.40;79.70;;;;;;5095741;28;20028;-70
2024/01/07 02:40:42;;;;;;;9.75;5.65;;;9.40;79.60;;;;;;5095861;28;20111;-68
2024/01/07 02:43:08;;;;;;;7.45;4.68;;;9.40;79.60;;;;;;5095891;28;20032;-71
2024/01/07 02:45:34;;;;;;;7.15;3.90;;;9.40;79.50;;;;;;5096077;28;20035;-71
2024/01/07 02:48:00;;;;;;;3.65;2.70;;;9.50;79.50;;;;;;5095631;28;20031;-70
2024/01/07 02:50:26;;;;;;;1.88;1.58;;;9.40;79.40;;;;;;5095797;28;20031;-70
2024/01/07 02:52:52;;;;;;;1.80;1.15;;;9.40;79.30;;;;;;5095524;28;20441;-71
2024/01/07 02:55:18;;;;;;;1.40;1.30;;;9.50;79.30;;;;;;5095415;28;20108;-70
2024/01/07 02:57:44;;;;;;;1.42;0.93;;;9.50;79.40;;;;;;5095490;28;20067;-70
2024/01/07 03:00:10;;;;;;;0.88;0.70;;;9.50;79.40;;;;;;5095627;28;20019;-70
2024/01/07 03:02:36;;;;;;;1.10;0.90;;;9.60;79.30;;;;;;5095423;28;20393;-69
2024/01/07 03:05:02;;;;;;;0.73;0.70;;;9.60;79.20;;;;;;5095334;28;20052;-69
2024/01/07 03:07:29;;;;;;;1.02;0.60;;;9.60;78.40;;;;;;5095889;28;20039;-70
2024/01/07 03:09:55;;;;;;;0.73;0.60;;;9.60;78.70;;;;;;5095874;28;20424;-70
2024/01/07 03:12:21;;;;;;;0.98;0.68;;;9.50;78.30;;;;;;5095375;28;20031;-70
2024/01/07 03:14:46;;;;;;;1.23;0.77;;;9.40;78.00;;;;;;5095024;28;20036;-71
2024/01/07 03:17:14;;;;;;;0.50;0.50;;;9.50;78.40;;;;;;5095554;28;20031;-70
2024/01/07 03:19:40;;;;;;;0.35;0.35;;;9.50;78.50;;;;;;5095751;28;20448;-70
2024/01/07 03:22:07;;;;;;;0.30;0.30;;;9.50;78.20;;;;;;5096236;28;20052;-70
2024/01/07 03:24:34;;;;;;;0.52;0.40;;;9.50;78.40;;;;;;5096487;28;20024;-71
2024/01/07 03:26:59;;;;;;;0.60;0.40;;;9.50;78.30;;;;;;5096232;28;20048;-70
2024/01/07 03:29:26;;;;;;;0.30;0.30;;;9.60;78.40;;;;;;5096085;28;20467;-70
2024/01/07 03:31:52;;;;;;;0.60;0.30;;;9.60;78.40;;;;;;5095240;28;20038;-71
2024/01/07 03:34:19;;;;;;;0.65;0.57;;;9.60;78.30;;;;;;5094984;28;20047;-69
2024/01/07 03:36:45;;;;;;;0.40;0.40;;;9.60;78.30;;;;;;5095022;28;20032;-71
2024/01/07 03:39:11;;;;;;;0.93;0.40;;;9.60;78.40;;;;;;5095227;28;20020;-70
2024/01/07 03:41:37;;;;;;;0.50;0.40;;;9.60;78.30;;;;;;5077248;28;20395;-69
2024/01/07 03:44:03;;;;;;;0.30;0.30;;;9.60;78.40;;;;;;5094998;28;20459;-70
2024/01/07 03:46:29;;;;;;;0.47;0.40;;;9.60;78.40;;;;;;5098562;28;20133;-71
2024/01/07 03:48:55;;;;;;;2.00;0.65;;;9.60;78.40;;;;;;5098893;28;20089;-70
2024/01/07 03:51:21;;;;;;;0.82;0.50;;;9.60;78.50;;;;;;5099385;28;20109;-70
2024/01/07 03:53:47;;;;;;;0.50;0.50;;;9.60;78.50;;;;;;5098856;28;20337;-68
2024/01/07 03:56:13;;;;;;;0.85;0.73;;;9.60;78.50;;;;;;5098737;28;20452;-70
2024/01/07 03:58:39;;;;;;;0.75;0.50;;;9.60;78.50;;;;;;5099268;28;20038;-70
2024/01/07 04:01:05;;;;;;;0.80;0.60;;;9.60;78.50;;;;;;5098575;28;20032;-72
2024/01/07 04:03:31;;;;;;;0.50;0.50;;;9.60;78.50;;;;;;5098908;28;20070;-71
2024/01/07 04:05:57;;;;;;;0.60;0.60;;;9.60;78.50;;;;;;5098624;28;20020;-71
2024/01/07 04:08:23;;;;;;;0.93;0.70;;;9.60;78.50;;;;;;5099079;28;20031;-72
2024/01/07 04:10:49;;;;;;;0.95;0.82;;;9.60;78.40;;;;;;5080573;28;20070;-69
2024/01/07 04:13:15;;;;;;;1.35;0.80;;;9.60;78.40;;;;;;5099012;28;20025;-72
2024/01/07 04:15:41;;;;;;;2.67;0.98;;;9.60;78.40;;;;;;5098297;28;20162;-71
2024/01/07 04:18:07;;;;;;;2.38;1.35;;;9.60;78.40;;;;;;5098410;28;20102;-73
2024/01/07 04:20:33;;;;;;;2.63;1.17;;;9.60;78.10;;;;;;5098314;28;20020;-70
2024/01/07 04:22:59;;;;;;;1.25;0.80;;;9.60;78.00;;;;;;5098554;28;20099;-71
2024/01/07 04:25:25;;;;;;;1.73;1.30;;;9.60;78.20;;;;;;5080327;28;20440;-73
2024/01/07 04:27:51;;;;;;;2.97;1.15;;;9.60;78.30;;;;;;5098476;28;20317;-70
2024/01/07 04:30:17;;;;;;;1.52;1.00;;;9.60;78.30;;;;;;5098169;28;20024;-71
2024/01/07 04:32:43;;;;;;;1.48;0.70;;;9.60;78.20;;;;;;5098126;28;20024;-69
2024/01/07 04:35:09;;;;;;;0.85;0.75;;;9.60;78.20;;;;;;5098000;28;20031;-72
2024/01/07 04:37:37;;;;;;;1.10;0.82;;;9.60;78.20;;;;;;5098563;28;20433;-71
2024/01/07 04:40:03;;;;;;;0.85;0.85;;;9.70;78.20;;;;;;5098125;28;20348;-69
2024/01/07 04:42:29;;;;;;;0.63;0.60;;;9.70;77.90;;;;;;5098185;28;20039;-69
2024/01/07 04:44:56;;;;;;;1.40;0.85;;;9.80;77.90;;;;;;5097808;28;20024;-71
2024/01/07 04:47:29;;;;;;;1.38;0.82;;;9.80;77.90;;;;;;5098075;28;20099;-70
2024/01/07 04:49:55;;;;;;;1.52;1.02;;;9.80;77.80;;;;;;5098367;28;20032;-71
2024/01/07 04:52:24;;;;;;;1.42;0.90;;;9.80;77.60;;;;;;5098319;28;20024;-73
2024/01/07 04:54:54;;;;;;;1.60;0.90;;;9.80;77.30;;;;;;5097824;28;20028;-69
2024/01/07 04:57:21;;;;;;;2.20;1.02;;;9.80;77.40;;;;;;5096892;28;20048;-70
2024/01/07 04:59:48;;;;;;;0.80;0.80;;;9.80;77.50;;;;;;5097553;28;20060;-73
2024/01/07 05:02:14;;;;;;;2.05;1.00;;;9.80;77.40;;;;;;5097542;28;20078;-71
2024/01/07 05:04:41;;;;;;;1.00;0.80;;;9.80;77.40;;;;;;5097649;28;20024;-70
2024/01/07 05:07:07;;;;;;;1.33;0.60;;;9.80;77.30;;;;;;5097697;28;20084;-72
2024/01/07 05:09:33;;;;;;;0.50;0.50;;;9.70;77.30;;;;;;5097407;28;20024;-70
2024/01/07 05:12:00;;;;;;;1.20;0.73;;;9.80;77.40;;;;;;5097300;28;20024;-72
2024/01/07 05:14:25;;;;;;;0.65;0.47;;;9.70;77.40;;;;;;5097063;28;20032;-71
2024/01/07 05:16:53;;;;;;;1.73;0.55;;;9.70;77.30;;;;;;5097832;28;20114;-70
2024/01/07 05:19:18;;;;;;;0.98;0.68;;;9.70;77.40;;;;;;5097124;28;20471;-71
2024/01/07 05:21:44;;;;;;;1.05;0.50;;;9.70;77.30;;;;;;5097687;28;20103;-70
2024/01/07 05:24:10;;;;;;;0.52;0.52;;;9.60;77.30;;;;;;5097051;28;20056;-71
2024/01/07 05:26:39;;;;;;;0.93;0.57;;;9.60;77.20;;;;;;5097642;28;20042;-71
2024/01/07 05:29:06;;;;;;;0.43;0.43;;;9.60;77.40;;;;;;5097575;28;20039;-71
2024/01/07 05:31:32;;;;;;;0.75;0.60;;;9.60;77.40;;;;;;5079129;28;20360;-69
2024/01/07 05:33:58;;;;;;;1.17;0.75;;;9.60;77.30;;;;;;5096953;28;20027;-70
2024/01/07 05:36:23;;;;;;;0.82;0.55;;;9.50;77.30;;;;;;5096838;28;20027;-69
2024/01/07 05:38:50;;;;;;;1.75;0.60;;;9.60;77.40;;;;;;5078988;28;20028;-71
2024/01/07 05:41:16;;;;;;;0.75;0.68;;;9.50;77.50;;;;;;5096748;28;20111;-71
2024/01/07 05:43:42;;;;;;;1.13;0.88;;;9.50;77.60;;;;;;5097022;28;20016;-73
2024/01/07 05:46:08;;;;;;;0.95;0.50;;;9.50;77.70;;;;;;5096659;28;20027;-72
2024/01/07 05:48:44;;;;;;;2.10;0.80;;;9.50;77.60;;;;;;5096647;28;20016;-70
2024/01/07 05:51:10;;;;;;;0.63;0.60;;;9.50;77.60;;;;;;5078882;28;20020;-70
2024/01/07 05:53:36;;;;;;;0.50;0.50;;;9.50;77.50;;;;;;5096866;28;20027;-72
2024/01/07 05:56:02;;;;;;;0.63;0.63;;;9.50;77.50;;;;;;5096984;28;20039;-70
2024/01/07 05:58:29;;;;;;;0.65;0.60;;;9.50;77.60;;;;;;5096773;28;20024;-72
2024/01/07 06:00:55;;;;;;;0.68;0.68;;;9.50;77.60;;;;;;5096814;28;20409;-71
2024/01/07 06:03:21;;;;;;;0.50;0.50;;;9.50;77.60;;;;;;5096325;28;20056;-72
2024/01/07 06:05:47;;;;;;;0.68;0.50;;;9.40;77.60;;;;;;5096537;28;20039;-70
2024/01/07 06:08:13;;;;;;;0.80;0.60;;;9.50;77.60;;;;;;5095755;28;20158;-72
2024/01/07 06:10:40;;;;;;;0.68;0.68;;;9.50;77.60;;;;;;5096068;28;20126;-71
2024/01/07 06:13:06;;;;;;;0.68;0.60;;;9.50;77.50;;;;;;5078345;28;20472;-72
2024/01/07 06:15:32;;;;;;;0.60;0.60;;;9.40;77.50;;;;;;5095873;28;20036;-70
2024/01/07 06:17:58;;;;;;;0.60;0.60;;;9.40;77.50;;;;;;5096405;28;20108;-70
2024/01/07 06:20:24;;;;;;;0.57;0.57;;;9.40;77.60;;;;;;5096296;28;20016;-70
2024/01/07 06:22:50;;;;;;;1.05;0.70;;;9.40;77.70;;;;;;5096028;28;20024;-71
2024/01/07 06:25:16;;;;;;;3.72;0.70;;;9.50;77.60;;;;;;5095932;28;20420;-71
2024/01/07 06:27:42;;;;;;;2.60;0.55;;;9.40;77.50;;;;;;5096259;28;20111;-69
2024/01/07 06:30:09;;;;;;;1.00;0.73;;;9.40;77.60;;;;;;5095924;28;20048;-71
2024/01/07 06:32:35;;;;;;;0.50;0.50;;;9.40;77.60;;;;;;5095879;28;20088;-69
2024/01/07 06:35:03;;;;;;;0.75;0.63;;;9.40;77.30;;;;;;5095775;28;20107;-69
2024/01/07 06:37:29;;;;;;;1.27;0.68;;;9.40;77.30;;;;;;5095678;28;20039;-70
2024/01/07 06:39:56;;;;;;;0.70;0.70;;;9.40;77.50;;;;;;5095632;28;20020;-70
2024/01/07 06:42:23;;;;;;;0.88;0.88;;;9.30;77.50;;;;;;5095709;28;20411;-72
2024/01/07 06:44:49;;;;;;;5.30;2.95;;;9.40;77.30;;;;;;5095896;28;20103;-72
2024/01/07 06:47:16;;;;;;;5.85;3.03;;;9.30;77.50;;;;;;5095698;28;20099;-69
2024/01/07 06:49:41;;;;;;;8.32;4.47;;;9.30;77.60;;;;;;5095903;28;20028;-70
2024/01/07 06:52:07;;;;;;;3.33;2.45;;;9.30;77.60;;;;;;5095612;28;20064;-72
2024/01/07 06:54:33;;;;;;;1.35;0.90;;;9.40;77.60;;;;;;5096063;28;20028;-70
2024/01/07 06:57:00;;;;;;;1.00;0.93;;;9.40;77.30;;;;;;5095805;28;20107;-71
2024/01/07 06:59:25;;;;;;;1.33;0.90;;;9.30;77.40;;;;;;5095962;28;20020;-72
2024/01/07 07:01:53;;;;;;;2.15;1.15;;;9.40;77.50;;;;;;5095437;28;20360;-71
2024/01/07 07:04:20;;;;;;;3.63;2.40;;;9.30;77.60;;;;;;5095853;28;20024;-71
2024/01/07 07:06:46;;;;;;;3.13;1.83;;;9.30;77.70;;;;;;5096134;28;20024;-69
2024/01/07 07:09:12;;;;;;;2.63;2.10;;;9.30;77.90;;;;;;5095378;28;20074;-71
2024/01/07 07:11:38;;;;;;;3.72;2.38;;;9.30;78.00;;;;;;5095355;28;20513;-71
2024/01/07 07:14:04;;;;;;;4.65;2.70;;;9.20;78.00;;;;;;5095186;28;20024;-72
2024/01/07 07:16:30;;;;;;;5.97;4.00;;;9.20;78.00;;;;;;5095082;28;20063;-71
2024/01/07 07:18:56;;;;;;;5.10;2.88;;;9.20;78.10;;;;;;5095521;28;20031;-71
2024/01/07 07:21:22;;;;;;;3.20;1.70;;;9.20;78.20;;;;;;5080228;28;20071;-71
2024/01/07 07:23:49;;;;;;;2.83;1.95;;;9.20;78.30;;;;;;5099684;28;20024;-69
2024/01/07 07:26:15;;;;;;;6.68;4.05;;;9.20;78.30;;;;;;5099361;28;20019;-72
2024/01/07 07:28:41;;;;;;;2.95;2.20;;;9.10;78.40;;;;;;5099611;28;20068;-71
2024/01/07 07:31:07;;;;;;;6.97;2.90;;;9.10;78.60;;;;;;5099307;28;20028;-70
2024/01/07 07:33:32;;;;;;;3.67;2.25;;;9.10;78.50;;;;;;5099811;28;20065;-71
2024/01/07 07:35:58;;;;;;;2.60;2.13;;;9.10;78.60;;;;;;5099363;28;20032;-71
2024/01/07 07:38:24;;;;;;;4.05;2.58;;;9.10;78.70;;;;;;5099195;28;20468;-70
2024/01/07 07:40:52;;;;;;;5.95;2.97;;;9.10;78.70;;;;;;5099534;28;20024;-72
2024/01/07 07:43:20;;;;;;;4.85;3.00;;;9.20;78.70;;;;;;5081189;28;20020;-69
2024/01/07 07:45:46;;;;;;;9.40;3.53;;;9.20;78.80;;;;;;5098921;28;20036;-72
2024/01/07 07:48:13;;;;;;;9.20;4.95;;;9.20;78.80;;;;;;5099000;28;20048;-71
2024/01/07 07:50:40;;;;;;;11.85;6.40;;;9.20;78.80;;;;;;5099205;28;20032;-69
2024/01/07 07:53:06;;;;;;;12.00;6.28;;;9.20;78.90;;;;;;5098828;28;20032;-72
2024/01/07 07:55:32;;;;;;;12.95;5.40;;;9.20;78.90;;;;;;5080858;28;20032;-69
2024/01/07 07:57:58;;;;;;;5.72;3.63;;;9.20;78.90;;;;;;5099024;28;20035;-71
2024/01/07 08:00:24;;;;;;;5.25;3.90;;;9.20;78.90;;;;;;5098698;28;20071;-70
2024/01/07 08:02:50;;;;;;;7.28;4.32;;;9.20;79.10;;;;;;5098937;28;20024;-69
2024/01/07 08:05:16;;;;;;;4.72;3.60;;;9.20;79.00;;;;;;5098871;28;20349;-71
2024/01/07 08:07:42;;;;;;;5.78;3.63;;;9.20;79.00;;;;;;5081435;28;20447;-72
2024/01/07 08:10:09;;;;;;;9.90;5.47;;;9.20;79.10;;;;;;5098545;28;20357;-70
2024/01/07 08:12:35;;;;;;;10.40;6.15;;;9.30;79.10;;;;;;5098776;28;20019;-71
2024/01/07 08:15:02;;;;;;;6.65;4.72;;;9.20;79.20;;;;;;5098214;28;20047;-70
2024/01/07 08:17:28;;;;;;;6.13;4.57;;;9.30;79.30;;;;;;5099036;28;20048;-70
2024/01/07 08:19:54;;;;;;;8.38;4.70;;;9.20;79.30;;;;;;5098327;28;20035;-71
2024/01/07 08:22:20;;;;;;;6.68;4.60;;;9.20;79.20;;;;;;5098573;28;20387;-70
2024/01/07 08:24:46;;;;;;;7.68;4.38;;;9.20;79.20;;;;;;5098493;28;20408;-72
2024/01/07 08:27:12;;;;;;;7.82;4.03;;;9.20;79.20;;;;;;5080365;28;20043;-71
2024/01/07 08:29:38;;;;;;;9.68;4.30;;;9.20;79.20;;;;;;5098206;28;20024;-72
2024/01/07 08:32:04;;;;;;;9.65;4.53;;;9.30;79.10;;;;;;5097201;28;20016;-71
2024/01/07 08:34:31;;;;;;;6.70;3.50;;;9.30;79.20;;;;;;5098051;28;20035;-72
2024/01/07 08:36:56;;;;;;;7.00;4.30;;;9.30;79.20;;;;;;5098606;28;20440;-69
2024/01/07 08:39:22;;;;;;;7.60;3.95;;;9.30;79.10;;;;;;5097957;28;20028;-69
2024/01/07 08:41:50;;;;;;;6.82;3.60;;;9.30;79.10;;;;;;5098199;28;20020;-70
2024/01/07 08:44:16;;;;;;;7.35;4.05;;;9.40;79.00;;;;;;5098098;28;20028;-70
2024/01/07 08:46:42;;;;;;;6.75;3.78;;;9.40;79.20;;;;;;5097812;28;20028;-71
2024/01/07 08:49:08;;;;;;;5.70;3.20;;;9.40;79.20;;;;;;5097824;28;20065;-70
2024/01/07 08:51:34;;;;;;;6.70;3.35;;;9.40;79.20;;;;;;5098028;28;20028;-71
2024/01/07 08:54:01;;;;;;;7.57;3.90;;;9.40;79.20;;;;;;5097695;28;20024;-72
2024/01/07 08:56:27;;;;;;;5.45;2.90;;;9.40;79.20;;;;;;5097917;28;20326;-70
2024/01/07 08:58:52;;;;;;;5.55;3.05;;;9.40;79.20;;;;;;5098209;28;20527;-70
2024/01/07 09:01:18;;;;;;;4.80;2.70;;;9.40;79.20;;;;;;5098022;28;20076;-74
2024/01/07 09:03:44;;;;;;;4.53;3.15;;;9.40;79.20;;;;;;5097533;28;20051;-69
2024/01/07 09:06:10;;;;;;;5.28;3.10;;;9.50;79.20;;;;;;5097483;28;20020;-74
2024/01/07 09:08:36;;;;;;;6.13;3.40;;;9.40;79.20;;;;;;5097344;28;20031;-67
2024/01/07 09:11:06;;;;;;;7.97;4.10;;;9.40;79.20;;;;;;5097918;28;20451;-67
2024/01/07 09:13:33;;;;;;;7.50;3.97;;;9.50;79.20;;;;;;5097558;28;20027;-62
2024/01/07 09:15:59;;;;;;;7.45;4.72;;;9.50;79.20;;;;;;5096219;28;20059;-66
2024/01/07 09:18:25;;;;;;;9.40;5.40;;;9.50;79.20;;;;;;5097256;28;20024;-65
2024/01/07 09:20:51;;;;;;;8.32;4.78;;;9.50;79.20;;;;;;5096881;28;20031;-64
2024/01/07 09:23:16;;;;;;;9.35;5.03;;;9.50;79.20;;;;;;5096964;28;20024;-64
2024/01/07 09:25:43;;;;;;;12.23;6.75;;;9.50;79.30;;;;;;5096767;28;20070;-71
2024/01/07 09:28:08;;;;;;;9.25;6.10;;;9.40;79.30;;;;;;5096801;28;20020;-72
2024/01/07 09:30:35;;;;;;;10.27;6.32;;;9.40;79.10;;;;;;5097505;28;20492;-70
2024/01/07 09:33:01;;;;;;;10.43;6.60;;;9.50;79.20;;;;;;5096683;28;20035;-71
2024/01/07 09:35:27;;;;;;;9.00;5.90;;;9.50;79.20;;;;;;5096519;28;20039;-70
2024/01/07 09:37:53;;;;;;;7.72;4.63;;;9.50;79.30;;;;;;5096601;28;20048;-71
2024/01/07 09:40:19;;;;;;;7.25;4.78;;;9.50;79.30;;;;;;5096785;28;20051;-71
2024/01/07 09:42:45;;;;;;;8.85;5.72;;;9.50;79.30;;;;;;5096002;28;20429;-71
2024/01/07 09:45:13;;;;;;;7.70;5.50;;;9.50;79.30;;;;;;5096404;28;20020;-71
2024/01/07 09:47:45;;;;;;;7.10;4.75;;;9.60;79.30;;;;;;5096378;28;20066;-71
2024/01/07 09:50:12;;;;;;;7.38;4.30;;;9.60;79.20;;;;;;5096311;28;20505;-70
2024/01/07 09:52:44;;;;;;;6.70;4.57;;;9.60;79.20;;;;;;5096194;28;20032;-73
2024/01/07 09:55:15;;;;;;;8.18;4.60;;;9.60;79.20;;;;;;5096234;28;20024;-71
2024/01/07 09:57:44;;;;;;;5.95;4.22;;;9.60;79.20;;;;;;5096021;28;20080;-73
2024/01/07 10:00:12;;;;;;;7.05;3.85;;;9.60;79.30;;;;;;5096089;28;20506;-71
2024/01/07 10:02:40;;;;;;;7.03;4.47;;;9.70;79.30;;;;;;5096254;28;20039;-71
2024/01/07 10:05:07;;;;;;;8.15;4.63;;;9.70;79.30;;;;;;5096201;28;20043;-71
2024/01/07 10:07:33;;;;;;;6.70;4.45;;;9.70;79.30;;;;;;5078285;28;20061;-72
2024/01/07 10:10:09;;;;;;;7.78;4.32;;;9.70;79.40;;;;;;5096001;28;20052;-71
2024/01/07 10:12:35;;;;;;;5.90;3.70;;;9.70;79.40;;;;;;5096027;28;20024;-70
2024/01/07 10:15:01;;;;;;;5.53;3.72;;;9.80;79.40;;;;;;5095549;28;20180;-72
2024/01/07 10:17:27;;;;;;;6.05;4.05;;;9.80;79.40;;;;;;5095856;28;20032;-71
2024/01/07 10:19:53;;;;;;;5.18;3.50;;;9.90;79.50;;;;;;5364377;22;20080;-72
2024/01/07 10:22:19;;;;;;;6.85;4.43;;;9.80;79.40;;;;;;5075566;28;20059;-74
2024/01/07 10:24:45;;;;;;;7.55;4.90;;;9.90;79.30;;;;;;5075456;28;20411;-72
2024/01/07 10:27:13;;;;;;;11.00;6.80;;;9.90;79.30;;;;;;5075582;28;20479;-74
2024/01/07 10:29:39;;;;;;;18.08;9.98;;;9.90;79.30;;;;;;5079124;28;20039;-73
2024/01/07 10:32:06;;;;;;;20.10;12.07;;;10.00;79.30;;;;;;5095587;28;20395;-72
2024/01/07 10:34:33;;;;;;;8.95;5.38;;;10.00;79.50;;;;;;5095547;28;20058;-74
2024/01/07 10:37:00;;;;;;;6.88;3.95;;;10.00;79.40;;;;;;5095742;28;20020;-73
2024/01/07 10:39:26;;;;;;;6.43;4.30;;;10.00;79.30;;;;;;5095405;28;20028;-75
2024/01/07 10:41:57;;;;;;;9.18;5.28;;;10.10;79.40;;;;;;5095394;28;20382;-72
2024/01/07 10:44:26;;;;;;;7.55;4.63;;;10.10;79.30;;;;;;5095284;28;20074;-74
2024/01/07 10:46:56;;;;;;;8.70;5.95;;;10.20;79.20;;;;;;5095532;28;20031;-71
2024/01/07 10:49:26;;;;;;;17.60;11.63;;;10.20;79.20;;;;;;5095047;28;20129;-73
2024/01/07 10:52:08;;;;;;;18.70;11.57;;;10.20;79.20;;;;;;5095486;28;20033;-73
2024/01/07 10:54:36;;;;;;;12.98;9.23;;;10.20;79.10;;;;;;5094583;28;20424;-72
2024/01/07 10:57:14;;;;;;;11.18;7.60;;;10.30;79.20;;;;;;5077700;28;20032;-72
2024/01/07 10:59:41;;;;;;;9.18;6.30;;;10.30;79.10;;;;;;5094016;28;20032;-71
2024/01/07 11:02:08;;;;;;;9.70;5.85;;;10.30;79.10;;;;;;5095633;28;20055;-73
2024/01/07 11:04:57;;;;;;;10.90;6.07;;;10.30;79.10;;;;;;5094383;28;20024;-73
2024/01/07 11:07:34;;;;;;;7.13;4.60;;;10.30;79.10;;;;;;5094985;28;20103;-74
2024/01/07 11:10:14;;;;;;;5.50;3.80;;;10.30;79.10;;;;;;5342798;22;20049;-68
2024/01/07 11:12:40;;;;;;;6.72;3.97;;;10.30;79.10;;;;;;5055291;28;20024;-69
2024/01/07 11:15:07;;;;;;;6.72;4.35;;;10.30;79.10;;;;;;5055285;28;20033;-70
2024/01/07 11:17:35;;;;;;;6.97;4.63;;;10.40;79.10;;;;;;5054959;28;20461;-68
2024/01/07 11:20:06;;;;;;;6.90;4.40;;;10.30;79.10;;;;;;5055115;28;20441;-68
2024/01/07 11:22:32;;;;;;;6.55;4.10;;;10.30;79.10;;;;;;5038040;28;20425;-72
2024/01/07 11:25:02;;;;;;;5.72;3.90;;;10.40;79.00;;;;;;5055468;28;20104;-68
2024/01/07 11:27:32;;;;;;;6.80;4.30;;;10.40;79.00;;;;;;5055232;28;20025;-69
2024/01/07 11:30:04;;;;;;;5.63;4.00;;;10.40;79.00;;;;;;5054882;28;20024;-67
2024/01/07 11:32:30;;;;;;;6.43;4.13;;;10.40;79.10;;;;;;5054907;28;20061;-67
2024/01/07 11:34:59;;;;;;;7.88;4.63;;;10.40;79.00;;;;;;5054880;28;20441;-69
2024/01/07 11:37:25;;;;;;;10.73;6.07;;;10.40;79.10;;;;;;5054803;28;20029;-69
2024/01/07 11:39:55;;;;;;;11.27;6.28;;;10.40;79.20;;;;;;5054869;28;20120;-68
2024/01/07 11:42:22;;;;;;;8.90;5.43;;;10.40;79.20;;;;;;5054790;28;20398;-69
2024/01/07 11:44:55;;;;;;;7.95;4.88;;;10.40;79.30;;;;;;5054745;28;20028;-68
2024/01/07 11:47:23;;;;;;;8.02;4.50;;;10.40;79.30;;;;;;5055092;28;20017;-68
2024/01/07 11:49:49;;;;;;;7.78;4.82;;;10.40;79.50;;;;;;5054658;28;20040;-69
2024/01/07 11:52:15;;;;;;;11.05;6.03;;;10.40;79.40;;;;;;5054949;28;20021;-68
2024/01/07 11:54:41;;;;;;;9.40;5.68;;;10.40;79.20;;;;;;5054704;28;20044;-68
2024/01/07 11:57:08;;;;;;;10.88;5.90;;;10.40;79.10;;;;;;5054960;28;20442;-68
2024/01/07 11:59:34;;;;;;;10.90;5.57;;;10.40;79.10;;;;;;5037135;28;20029;-71
2024/01/07 12:02:04;;;;;;;7.95;3.90;;;10.40;79.10;;;;;;5054594;28;20021;-68
2024/01/07 12:04:33;;;;;;;5.72;3.00;;;10.50;78.70;;;;;;5054645;28;20017;-69
2024/01/07 12:07:01;;;;;;;5.95;3.50;;;10.50;78.50;;;;;;5057111;28;20071;-68
2024/01/07 12:09:27;;;;;;;6.38;4.05;;;10.60;78.30;;;;;;5060438;28;20131;-69
2024/01/07 12:11:54;;;;;;;7.50;4.63;;;10.60;78.40;;;;;;5078529;28;20032;-69
2024/01/07 12:14:20;;;;;;;7.10;4.50;;;10.60;78.20;;;;;;5078451;28;20032;-69
2024/01/07 12:16:47;;;;;;;11.82;5.50;;;10.60;78.00;;;;;;5078187;28;20039;-70
2024/01/07 12:19:13;;;;;;;15.93;6.63;;;10.60;77.70;;;;;;5060546;28;20094;-69
2024/01/07 12:21:40;;;;;;;6.85;3.70;;;10.70;77.60;;;;;;5078559;28;20029;-69
2024/01/07 12:24:06;;;;;;;5.30;2.83;;;10.70;77.20;;;;;;5077976;28;20016;-69
2024/01/07 12:26:35;;;;;;;3.60;2.35;;;10.70;77.40;;;;;;5078265;28;20024;-69
2024/01/07 12:29:04;;;;;;;3.47;2.50;;;10.70;77.40;;;;;;5077915;28;20021;-69
2024/01/07 12:31:34;;;;;;;6.68;4.20;;;10.70;77.40;;;;;;5077807;28;20111;-69
2024/01/07 12:34:02;;;;;;;6.90;4.63;;;10.80;77.50;;;;;;5077798;28;20035;-69
2024/01/07 12:36:34;;;;;;;8.98;5.22;;;10.80;77.40;;;;;;5077703;28;20396;-69
2024/01/07 12:39:13;;;;;;;10.23;5.80;;;10.80;77.40;;;;;;5078009;28;20108;-69
2024/01/07 12:41:40;;;;;;;11.70;6.60;;;10.80;77.40;;;;;;5077990;28;20055;-68
2024/01/07 12:44:10;;;;;;;10.68;5.90;;;10.80;77.50;;;;;;5078203;28;20108;-69
2024/01/07 12:46:36;;;;;;;9.32;5.50;;;10.80;77.70;;;;;;5077874;28;20043;-69
2024/01/07 12:49:02;;;;;;;6.60;3.90;;;10.80;77.90;;;;;;5077494;28;20452;-68
2024/01/07 12:51:28;;;;;;;7.45;4.13;;;10.70;77.40;;;;;;5077551;28;20027;-70